createdAt,value
2023-02-22T00:00:14.713Z,162.90
2023-02-22T00:01:14.978Z,162.11
2023-02-22T00:02:14.789Z,163.47
2023-02-22T00:03:15.697Z,163.60
2023-02-22T00:04:14.812Z,164.34
2023-02-22T00:05:14.844Z,164.21
2023-02-22T00:06:14.864Z,161.97
2023-02-22T00:07:14.917Z,162.80
2023-02-22T00:08:14.922Z,160.88
2023-02-22T00:09:14.953Z,161.64
2023-02-22T00:10:15.050Z,161.42
2023-02-22T00:11:15.401Z,162.28
2023-02-22T00:12:15.038Z,162.72
2023-02-22T00:13:15.078Z,158.90
2023-02-22T00:14:15.112Z,160.57
2023-02-22T00:15:15.135Z,158.64
2023-02-22T00:16:15.200Z,158.20
2023-02-22T00:17:15.204Z,159.13
2023-02-22T00:18:15.235Z,159.98
2023-02-22T00:19:15.273Z,158.81
2023-02-22T00:20:16.360Z,160.65
2023-02-22T00:21:15.633Z,162.70
2023-02-22T03:24:21.771Z,144.80
2023-02-22T03:25:21.807Z,145.48
2023-02-22T03:26:21.861Z,147.19
2023-02-22T03:27:21.899Z,147.66
2023-02-22T03:28:21.945Z,147.39
2023-02-22T03:29:22.007Z,147.01
2023-02-22T03:30:22.076Z,146.96
2023-02-22T03:31:22.206Z,146.31
2023-02-22T03:32:22.153Z,150.59
2023-02-22T03:33:22.179Z,146.12
2023-02-22T03:34:22.212Z,143.90
2023-02-22T03:35:22.253Z,147.33
2023-02-22T03:36:22.381Z,149.35
2023-02-22T03:37:22.402Z,148.55
2023-02-22T03:38:22.386Z,149.75
2023-02-22T03:39:22.397Z,148.08
2023-02-22T03:40:22.429Z,146.65
2023-02-22T03:41:22.460Z,149.46
2023-02-22T03:42:22.495Z,151.38
2023-02-22T03:43:22.524Z,151.50
2023-02-22T03:44:22.555Z,149.94
2023-02-22T03:45:22.588Z,151.03
2023-02-22T03:46:22.663Z,151.14
2023-02-22T03:47:22.660Z,150.49
2023-02-22T03:48:22.684Z,149.39
2023-02-22T03:49:22.714Z,150.69
2023-02-22T03:50:22.754Z,151.36
2023-02-22T03:51:23.106Z,151.61
2023-02-22T03:52:22.807Z,151.35
2023-02-22T03:53:22.855Z,153.36
2023-02-22T03:54:22.901Z,153.86
2023-02-22T03:55:22.923Z,153.23
2023-02-22T03:56:22.967Z,150.93
2023-02-22T03:57:23.000Z,152.64
2023-02-22T03:58:23.048Z,153.18
2023-02-22T03:59:23.086Z,153.03
2023-02-22T04:00:23.201Z,151.77
2023-02-22T04:01:23.135Z,150.68
2023-02-22T04:02:23.164Z,152.36
2023-02-22T04:03:23.207Z,151.14
2023-02-22T04:04:23.251Z,148.40
2023-02-22T04:05:23.266Z,149.17
2023-02-22T04:06:23.291Z,152.62
2023-02-22T04:07:23.323Z,148.95
2023-02-22T04:08:24.218Z,150.28
2023-02-22T04:09:23.393Z,149.78
2023-02-22T04:10:23.389Z,151.95
2023-02-22T04:11:23.416Z,150.48
2023-02-22T04:12:23.435Z,150.47
2023-02-22T04:13:23.585Z,150.67
2023-02-22T04:14:23.985Z,152.39
2023-02-22T04:15:23.604Z,150.84
2023-02-22T04:16:23.544Z,150.31
2023-02-22T04:17:23.575Z,150.21
2023-02-22T04:18:23.596Z,151.14
2023-02-22T04:19:24.199Z,151.58
2023-02-22T04:20:23.640Z,152.44
2023-02-22T04:21:23.670Z,153.10
2023-02-22T04:22:23.694Z,153.40
2023-02-22T04:23:23.718Z,154.44
2023-02-22T04:24:24.699Z,155.48
2023-02-22T04:25:23.760Z,154.55
2023-02-22T04:26:23.780Z,155.44
2023-02-22T04:27:23.783Z,154.82
2023-02-22T04:28:23.798Z,155.10
2023-02-22T04:29:23.865Z,155.52
2023-02-22T04:30:23.894Z,156.52
2023-02-22T04:31:23.937Z,156.54
2023-02-22T04:32:23.920Z,157.50
2023-02-22T04:33:23.989Z,156.32
2023-02-22T04:34:23.917Z,156.86
2023-02-22T04:35:23.935Z,156.44
2023-02-22T04:36:24.707Z,158.40
2023-02-22T04:37:24.779Z,156.23
2023-02-22T04:38:23.940Z,156.03
2023-02-22T04:39:24.713Z,155.81
2023-02-22T04:40:23.944Z,157.71
2023-02-22T04:41:25.470Z,155.60
2023-02-22T04:42:23.931Z,156.13
2023-02-22T04:43:23.934Z,154.89
2023-02-22T04:44:23.934Z,157.81
2023-02-22T04:45:23.950Z,155.78
2023-02-22T04:46:23.937Z,157.08
2023-02-22T04:47:23.931Z,155.54
2023-02-22T04:48:23.937Z,156.31
2023-02-22T04:49:23.937Z,155.44
2023-02-22T04:50:23.929Z,156.00
2023-02-22T04:51:23.932Z,157.45
2023-02-22T04:52:23.946Z,156.05
2023-02-22T04:53:23.945Z,155.37
2023-02-22T04:54:23.943Z,155.15
2023-02-22T04:55:23.941Z,155.17
2023-02-22T04:56:24.712Z,154.19
2023-02-22T04:57:23.953Z,153.43
2023-02-22T04:58:23.983Z,151.88
2023-02-22T04:59:23.965Z,151.82
2023-02-22T05:00:24.231Z,151.46
2023-02-22T05:01:23.977Z,151.28
2023-02-22T05:02:23.994Z,152.91
2023-02-22T05:16:24.061Z,154.18
2023-02-22T05:17:24.012Z,154.38
2023-02-22T05:18:24.033Z,154.26
2023-02-22T05:20:24.254Z,156.02
2023-02-22T05:21:24.248Z,153.55
2023-02-22T05:22:24.227Z,153.81
2023-02-22T05:23:24.220Z,154.31
2023-02-22T05:24:24.223Z,153.86
2023-02-22T05:25:24.224Z,154.32
2023-02-22T05:26:24.232Z,153.98
2023-02-22T05:27:24.230Z,154.61
2023-02-22T05:28:24.225Z,154.16
2023-02-22T05:29:24.231Z,153.74
2023-02-22T05:30:24.240Z,153.48
2023-02-22T05:31:24.329Z,152.65
2023-02-22T05:32:24.278Z,151.58
2023-02-22T05:33:24.230Z,150.10
2023-02-22T05:34:24.233Z,150.06
2023-02-22T05:35:24.236Z,148.78
2023-02-22T05:36:24.255Z,148.91
2023-02-22T05:37:24.248Z,150.84
2023-02-22T05:38:24.250Z,149.28
2023-02-22T05:39:24.248Z,149.84
2023-02-22T05:40:24.256Z,151.23
2023-02-22T05:41:24.254Z,150.01
2023-02-22T05:42:24.257Z,147.97
2023-02-22T05:43:24.251Z,146.49
2023-02-22T05:44:24.262Z,148.00
2023-02-22T05:45:24.271Z,146.85
2023-02-22T05:46:24.306Z,148.32
2023-02-22T05:47:24.263Z,149.08
2023-02-22T05:48:24.262Z,147.10
2023-02-22T05:49:24.272Z,148.68
2023-02-22T05:50:24.273Z,147.85
2023-02-22T05:51:24.266Z,149.86
2023-02-22T05:52:24.268Z,147.96
2023-02-22T05:53:24.276Z,149.44
2023-02-22T05:54:24.275Z,147.24
2023-02-22T05:55:24.359Z,147.94
2023-02-22T05:56:24.289Z,146.10
2023-02-22T05:57:24.366Z,147.20
2023-02-22T05:58:24.295Z,148.33
2023-02-22T05:59:24.304Z,147.05
2023-02-22T06:00:25.240Z,148.33
2023-02-22T06:01:24.312Z,147.62
2023-02-22T06:02:24.319Z,148.07
2023-02-22T06:03:24.440Z,146.97
2023-02-22T06:04:24.331Z,149.03
2023-02-22T06:05:24.359Z,149.86
2023-02-22T06:06:24.324Z,150.45
2023-02-22T06:07:24.346Z,149.01
2023-02-22T06:08:25.239Z,148.74
2023-02-22T06:09:24.336Z,150.77
2023-02-22T06:10:24.337Z,148.15
2023-02-22T06:11:24.331Z,146.30
2023-02-22T06:12:24.346Z,146.41
2023-02-22T06:13:24.347Z,148.34
2023-02-22T06:14:24.352Z,147.95
2023-02-22T06:15:24.426Z,148.77
2023-02-22T06:16:24.377Z,146.86
2023-02-22T06:17:24.342Z,145.21
2023-02-22T06:18:24.349Z,143.69
2023-02-22T06:19:24.350Z,141.61
2023-02-22T06:20:24.352Z,141.22
2023-02-22T06:21:24.365Z,140.54
2023-02-22T06:22:24.474Z,141.55
2023-02-22T06:23:24.430Z,140.98
2023-02-22T06:24:24.436Z,140.36
2023-02-22T06:25:24.448Z,139.48
2023-02-22T06:26:24.447Z,140.33
2023-02-22T06:27:24.449Z,138.76
2023-02-22T06:28:24.453Z,142.04
2023-02-22T06:29:24.469Z,141.42
2023-02-22T06:30:24.551Z,143.34
2023-02-22T06:31:25.235Z,146.47
2023-02-22T06:32:24.585Z,148.82
2023-02-22T06:33:24.654Z,148.22
2023-02-22T06:34:24.690Z,150.98
2023-02-22T06:35:24.824Z,153.32
2023-02-22T06:36:24.874Z,159.07
2023-02-22T06:37:24.838Z,162.94
2023-02-22T06:38:24.883Z,166.78
2023-02-22T06:39:24.922Z,169.26
2023-02-22T06:40:24.950Z,174.10
2023-02-22T06:41:25.047Z,177.61
2023-02-22T06:42:25.083Z,182.94
2023-02-22T06:43:25.074Z,190.39
2023-02-22T06:44:25.084Z,193.16
2023-02-22T06:45:25.156Z,196.27
2023-02-22T06:46:25.115Z,198.73
2023-02-22T06:47:25.145Z,201.79
2023-02-22T06:48:25.159Z,204.14
2023-02-22T06:49:25.173Z,208.16
2023-02-22T06:50:25.219Z,211.50
2023-02-22T06:51:25.192Z,215.01
2023-02-22T06:52:25.205Z,220.80
2023-02-22T06:53:25.220Z,223.86
2023-02-22T06:54:25.211Z,226.23
2023-02-22T06:55:25.231Z,196.72
2023-02-22T06:56:25.252Z,159.25
2023-02-22T06:57:25.319Z,139.33
2023-02-22T06:58:25.314Z,96.03
2023-02-22T06:59:25.331Z,85.99
2023-02-22T07:00:25.362Z,49.25
2023-02-22T07:01:25.402Z,41.43
2023-02-22T07:02:25.449Z,38.24
2023-02-22T07:03:25.614Z,53.61
2023-02-22T07:04:25.479Z,50.85
2023-02-22T07:05:25.495Z,46.43
2023-02-22T07:06:25.501Z,81.40
2023-02-22T07:07:25.509Z,109.78
2023-02-22T07:08:25.561Z,124.09
2023-02-22T07:09:25.607Z,136.99
2023-02-22T07:10:25.647Z,148.32
2023-02-22T07:11:25.725Z,151.91
2023-02-22T07:12:25.685Z,159.74
2023-02-22T07:13:25.742Z,164.77
2023-02-22T07:14:25.749Z,168.91
2023-02-22T07:15:25.769Z,175.21
2023-02-22T07:16:25.915Z,179.41
2023-02-22T07:17:25.925Z,186.45
2023-02-22T07:18:25.910Z,189.67
2023-02-22T07:19:26.767Z,192.57
2023-02-22T07:20:26.039Z,200.30
2023-02-22T07:21:26.063Z,201.45
2023-02-22T07:22:26.092Z,203.61
2023-02-22T07:23:26.126Z,206.72
2023-02-22T07:24:26.151Z,211.91
2023-02-22T07:25:26.193Z,214.22
2023-02-22T07:26:26.223Z,223.50
2023-02-22T07:27:26.221Z,226.12
2023-02-22T07:28:26.236Z,231.46
2023-02-22T07:29:26.808Z,237.70
2023-02-22T07:30:26.384Z,239.76
2023-02-22T07:31:28.234Z,243.27
2023-02-22T07:32:26.382Z,248.13
2023-02-22T07:33:26.257Z,250.00
2023-02-22T07:34:26.244Z,249.65
2023-02-22T07:35:26.234Z,250.00
2023-02-22T07:36:26.311Z,250.00
2023-02-22T07:37:26.229Z,250.00
2023-02-22T07:38:26.215Z,248.95
2023-02-22T07:39:26.212Z,250.00
2023-02-22T07:40:26.205Z,250.00
2023-02-22T07:41:26.206Z,249.03
2023-02-22T07:42:26.188Z,250.00
2023-02-22T07:43:26.246Z,250.00
2023-02-22T07:44:26.189Z,250.00
2023-02-22T07:45:26.227Z,248.96
2023-02-22T07:46:26.177Z,246.93
2023-02-22T07:47:26.778Z,249.18
2023-02-22T07:48:26.155Z,250.00
2023-02-22T07:49:26.140Z,250.00
2023-02-22T07:50:26.138Z,249.06
2023-02-22T07:51:26.141Z,249.64
2023-02-22T07:52:26.124Z,248.40
2023-02-22T07:53:28.616Z,249.09
2023-02-22T07:54:26.420Z,249.19
2023-02-22T07:55:26.385Z,249.54
2023-02-22T07:56:26.415Z,250.64
2023-02-22T07:57:26.440Z,252.88
2023-02-22T07:58:28.202Z,255.56
2023-02-22T07:59:26.503Z,250.00
2023-02-22T08:00:26.686Z,248.32
2023-02-22T08:01:26.568Z,250.00
2023-02-22T08:02:26.705Z,248.28
2023-02-22T08:03:26.653Z,248.07
2023-02-22T08:04:26.645Z,250.00
2023-02-22T08:05:26.643Z,249.44
2023-02-22T08:06:26.661Z,248.86
2023-02-22T08:07:26.670Z,248.39
2023-02-22T08:08:26.702Z,248.41
2023-02-22T11:06:31.865Z,133.40
2023-02-22T11:10:31.857Z,134.41
2023-02-22T11:17:31.867Z,137.64
2023-02-22T11:20:31.864Z,139.87
2023-02-22T11:24:43.647Z,141.67
2023-02-22T12:34:33.218Z,150.67
2023-02-22T12:35:33.226Z,149.14
2023-02-22T12:36:33.287Z,150.40
2023-02-22T12:37:33.358Z,150.58
2023-02-22T12:38:33.407Z,150.18
2023-02-22T12:39:43.831Z,148.70
2023-02-22T12:40:34.467Z,148.80
2023-02-22T12:41:33.510Z,149.01
2023-02-22T12:42:33.456Z,149.35
2023-02-22T12:43:33.439Z,150.51
2023-02-22T12:44:33.435Z,149.33
2023-02-22T12:45:33.426Z,148.86
2023-02-22T12:46:33.479Z,149.24
2023-02-22T12:47:33.436Z,149.39
2023-02-22T12:48:34.320Z,149.54
2023-02-22T12:49:33.442Z,146.46
2023-02-22T12:50:33.447Z,147.90
2023-02-22T12:54:33.521Z,144.93
2023-02-22T12:57:33.576Z,146.05
2023-02-22T12:58:33.579Z,144.19
2023-02-22T12:59:33.560Z,147.19
2023-02-22T13:01:33.580Z,147.51
2023-02-22T13:02:33.594Z,147.03
2023-02-22T13:03:33.588Z,145.16
2023-02-22T13:04:33.914Z,146.89
2023-02-22T13:05:33.645Z,146.29
2023-02-22T13:07:33.615Z,145.59
2023-02-22T13:08:33.610Z,145.34
2023-02-22T13:09:33.612Z,146.28
2023-02-22T13:10:33.615Z,145.94
2023-02-22T13:11:33.622Z,145.42
2023-02-22T13:12:34.405Z,145.23
2023-02-22T13:13:33.618Z,145.47
2023-02-22T13:14:33.626Z,146.85
2023-02-22T13:15:33.619Z,144.92
2023-02-22T13:16:33.620Z,145.48
2023-02-22T13:17:33.630Z,145.62
2023-02-22T13:18:33.641Z,146.23
2023-02-22T13:19:33.616Z,145.14
2023-02-22T13:20:33.614Z,144.97
2023-02-22T13:21:33.617Z,144.16
2023-02-22T13:22:33.621Z,143.75
2023-02-22T13:23:33.686Z,143.64
2023-02-22T13:24:34.618Z,143.70
2023-02-22T13:25:33.612Z,144.12
2023-02-22T13:26:33.913Z,144.61
2023-02-22T13:27:33.594Z,145.44
2023-02-22T13:28:33.586Z,147.01
2023-02-22T13:29:33.578Z,146.15
2023-02-22T13:30:33.611Z,146.49
2023-02-22T13:31:36.120Z,145.89
2023-02-22T13:32:33.673Z,148.11
2023-02-22T13:34:33.550Z,146.94
2023-02-22T13:35:33.551Z,146.06
2023-02-22T13:36:33.535Z,147.54
2023-02-22T13:37:35.660Z,145.79
2023-02-22T13:38:33.517Z,145.88
2023-02-22T13:39:33.517Z,146.11
2023-02-22T13:40:33.519Z,146.30
2023-02-22T13:41:33.497Z,147.02
2023-02-22T13:42:33.542Z,147.53
2023-02-22T13:43:33.489Z,146.32
2023-02-22T13:44:33.476Z,147.70
2023-02-22T13:45:33.469Z,146.88
2023-02-22T13:46:33.465Z,147.87
2023-02-22T13:47:33.471Z,147.56
2023-02-22T13:48:33.464Z,148.35
2023-02-22T13:49:33.440Z,147.95
2023-02-22T13:50:33.442Z,147.52
2023-02-22T13:51:33.500Z,148.69
2023-02-22T13:52:33.437Z,147.96
2023-02-22T13:53:33.449Z,148.29
2023-02-22T13:54:33.451Z,147.70
2023-02-22T13:55:33.484Z,147.57
2023-02-22T13:56:33.497Z,147.20
2023-02-22T13:57:33.521Z,147.27
2023-02-22T13:58:33.528Z,146.90
2023-02-22T13:59:36.034Z,146.73
2023-02-22T14:00:33.542Z,146.67
2023-02-22T14:08:33.479Z,146.88
2023-02-22T14:09:33.473Z,146.88
2023-02-22T14:10:33.464Z,146.17
2023-02-22T14:11:33.468Z,145.93
2023-02-22T14:12:33.486Z,146.16
2023-02-22T14:13:33.492Z,146.38
2023-02-22T14:14:33.435Z,146.17
2023-02-22T14:15:33.431Z,145.94
2023-02-22T14:16:33.445Z,145.28
2023-02-22T14:17:33.429Z,145.59
2023-02-22T14:18:33.417Z,144.60
2023-02-22T14:19:33.396Z,145.42
2023-02-22T14:20:33.401Z,144.78
2023-02-22T14:21:33.451Z,144.50
2023-02-22T14:22:33.496Z,144.90
2023-02-22T14:23:33.393Z,144.43
2023-02-22T14:24:33.369Z,145.72
2023-02-22T14:25:33.374Z,144.33
2023-02-22T14:26:33.364Z,144.91
2023-02-22T14:27:33.360Z,144.70
2023-02-22T14:28:33.346Z,144.22
2023-02-22T14:29:33.341Z,145.04
2023-02-22T14:30:33.425Z,144.60
2023-02-22T14:31:37.077Z,144.31
2023-02-22T14:32:33.465Z,144.41
2023-02-22T14:33:33.313Z,144.55
2023-02-22T14:34:33.302Z,144.75
2023-02-22T14:35:44.593Z,145.21
2023-02-22T14:36:34.303Z,144.45
2023-02-22T14:37:33.291Z,144.68
2023-02-22T14:38:33.388Z,145.14
2023-02-22T14:39:33.271Z,145.23
2023-02-22T14:40:33.262Z,145.58
2023-02-22T14:41:33.249Z,145.42
2023-02-22T14:42:33.278Z,145.08
2023-02-22T14:43:33.328Z,145.13
2023-02-22T14:44:33.235Z,145.02
2023-02-22T14:45:33.319Z,144.92
2023-02-22T14:46:33.220Z,145.02
2023-02-22T14:47:33.937Z,145.19
2023-02-22T14:48:33.209Z,145.21
2023-02-22T14:49:33.193Z,143.68
2023-02-22T14:50:33.189Z,143.88
2023-02-22T14:51:33.200Z,144.15
2023-02-22T14:52:33.266Z,144.83
2023-02-22T14:53:33.352Z,144.87
2023-02-22T14:54:33.328Z,144.05
2023-02-22T14:55:33.350Z,144.99
2023-02-22T14:56:33.472Z,144.95
2023-02-22T14:57:33.463Z,145.27
2023-02-22T14:58:33.486Z,144.79
2023-02-22T14:59:33.539Z,145.28
2023-02-22T15:00:33.576Z,144.83
2023-02-22T15:01:48.890Z,145.13
2023-02-22T15:02:34.725Z,145.21
2023-02-22T15:03:33.655Z,145.48
2023-02-22T15:04:33.654Z,145.60
2023-02-22T15:05:33.676Z,145.87
2023-02-22T15:06:33.602Z,145.24
2023-02-22T15:07:33.608Z,145.10
2023-02-22T15:08:33.587Z,145.20
2023-02-22T15:09:34.963Z,144.97
2023-02-22T15:10:33.578Z,145.26
2023-02-22T15:11:33.609Z,145.09
2023-02-22T15:12:33.592Z,144.36
2023-02-22T15:13:33.552Z,145.43
2023-02-22T15:14:33.553Z,144.74
2023-02-22T15:15:33.546Z,144.56
2023-02-22T15:16:33.562Z,143.95
2023-02-22T15:17:33.536Z,145.16
2023-02-22T15:18:33.526Z,144.44
2023-02-22T15:19:33.513Z,143.38
2023-02-22T15:20:33.570Z,143.24
2023-02-22T15:21:33.505Z,143.94
2023-02-22T15:22:33.511Z,143.53
2023-02-22T15:23:33.499Z,143.71
2023-02-22T15:24:33.483Z,143.23
2023-02-22T15:25:33.480Z,143.28
2023-02-22T15:26:33.473Z,143.07
2023-02-22T15:27:33.487Z,142.61
2023-02-22T15:30:33.519Z,143.69
2023-02-22T15:31:33.503Z,143.60
2023-02-22T15:32:33.536Z,143.30
2023-02-22T15:33:33.569Z,143.71
2023-02-22T15:34:33.637Z,143.56
2023-02-22T15:35:33.856Z,143.59
2023-02-22T15:36:33.717Z,143.54
2023-02-22T15:37:33.771Z,143.62
2023-02-22T15:38:33.823Z,142.98
2023-02-22T15:39:33.859Z,143.26
2023-02-22T15:40:33.920Z,143.45
2023-02-22T15:41:33.964Z,142.53
2023-02-22T15:42:34.018Z,143.03
2023-02-22T15:43:34.064Z,143.02
2023-02-22T15:44:34.121Z,141.63
2023-02-22T15:45:34.179Z,141.64
2023-02-22T15:46:34.222Z,141.42
2023-02-22T15:47:34.371Z,141.18
2023-02-22T15:48:34.332Z,141.12
2023-02-22T15:49:34.374Z,141.73
2023-02-22T15:50:34.466Z,141.87
2023-02-22T15:51:34.485Z,141.19
2023-02-22T15:52:34.554Z,141.00
2023-02-22T15:53:34.611Z,141.01
2023-02-22T15:54:34.711Z,140.23
2023-02-22T15:55:34.723Z,141.07
2023-02-22T15:56:34.777Z,140.78
2023-02-22T15:57:34.847Z,140.21
2023-02-22T15:58:34.894Z,140.45
2023-02-22T15:59:34.961Z,139.85
2023-02-22T16:00:35.004Z,140.39
2023-02-22T16:01:35.151Z,140.00
2023-02-22T16:02:35.148Z,139.73
2023-02-22T16:03:35.482Z,140.04
2023-02-22T16:04:35.243Z,140.11
2023-02-22T16:05:35.279Z,139.29
2023-02-22T16:06:35.444Z,139.09
2023-02-22T16:07:35.400Z,139.15
2023-02-22T16:08:45.784Z,139.70
2023-02-22T16:09:36.449Z,139.75
2023-02-22T16:10:35.460Z,139.88
2023-02-22T16:11:35.464Z,140.00
2023-02-22T16:12:35.436Z,139.34
2023-02-22T16:13:35.437Z,139.21
2023-02-22T16:14:35.413Z,139.22
2023-02-22T16:15:35.411Z,139.83
2023-02-22T16:16:35.501Z,138.88
2023-02-22T16:17:35.479Z,138.11
2023-02-22T16:18:35.402Z,139.28
2023-02-22T16:19:35.411Z,138.68
2023-02-22T16:20:35.433Z,138.37
2023-02-22T16:21:35.474Z,137.86
2023-02-22T16:22:35.527Z,139.07
2023-02-22T16:23:35.571Z,138.53
2023-02-22T16:24:35.627Z,137.85
2023-02-22T16:25:35.799Z,137.22
2023-02-22T16:26:35.676Z,136.65
2023-02-22T16:27:35.697Z,137.28
2023-02-22T16:28:35.747Z,137.76
2023-02-22T16:29:35.832Z,136.50
2023-02-22T16:30:35.923Z,137.27
2023-02-22T16:31:35.968Z,135.97
2023-02-22T16:32:35.873Z,136.95
2023-02-22T16:33:35.857Z,137.14
2023-02-22T16:34:35.928Z,135.67
2023-02-22T16:35:35.884Z,136.14
2023-02-22T16:36:35.887Z,136.47
2023-02-22T16:37:35.888Z,136.46
2023-02-22T16:38:35.928Z,136.59
2023-02-22T16:39:35.967Z,136.10
2023-02-22T16:40:35.954Z,136.04
2023-02-22T16:41:35.984Z,135.00
2023-02-22T16:42:35.992Z,135.42
2023-02-22T16:43:37.099Z,135.51
2023-02-22T16:44:36.040Z,135.38
2023-02-22T16:45:36.154Z,135.39
2023-02-22T16:46:37.008Z,135.54
2023-02-22T16:47:36.146Z,136.31
2023-02-22T16:48:36.188Z,135.87
2023-02-22T16:49:36.093Z,134.38
2023-02-22T16:50:36.093Z,134.75
2023-02-22T16:51:36.095Z,134.94
2023-02-22T16:52:36.086Z,136.06
2023-02-22T16:53:36.114Z,134.96
2023-02-22T16:54:36.100Z,135.35
2023-02-22T16:55:36.098Z,134.96
2023-02-22T16:56:36.095Z,135.59
2023-02-22T16:57:36.103Z,135.24
2023-02-22T16:58:36.126Z,135.41
2023-02-22T16:59:36.110Z,134.51
2023-02-22T17:00:36.126Z,134.88
2023-02-22T17:01:36.140Z,134.13
2023-02-22T17:02:36.120Z,135.60
2023-02-22T17:03:36.127Z,134.63
2023-02-22T17:04:36.122Z,134.45
2023-02-22T17:05:36.253Z,133.61
2023-02-22T17:06:36.131Z,134.22
2023-02-22T17:07:36.138Z,133.90
2023-02-22T17:08:36.149Z,133.45
2023-02-22T17:09:36.149Z,132.26
2023-02-22T17:10:36.144Z,132.77
2023-02-22T17:11:36.143Z,132.91
2023-02-22T17:12:36.203Z,134.48
2023-02-22T17:13:36.150Z,133.21
2023-02-22T17:14:36.147Z,134.00
2023-02-22T17:15:36.173Z,133.93
2023-02-22T17:16:36.154Z,134.19
2023-02-22T17:17:36.182Z,134.33
2023-02-22T17:18:36.185Z,133.55
2023-02-22T17:19:37.646Z,133.20
2023-02-22T17:20:36.153Z,133.25
2023-02-22T17:21:36.158Z,132.60
2023-02-22T17:22:36.160Z,133.09
2023-02-22T17:23:36.170Z,132.51
2023-02-22T17:24:36.173Z,132.17
2023-02-22T17:25:36.172Z,131.10
2023-02-22T17:26:36.180Z,132.41
2023-02-22T17:27:36.180Z,132.07
2023-02-22T17:28:36.247Z,131.19
2023-02-22T17:29:36.195Z,131.83
2023-02-22T17:30:36.223Z,131.51
2023-02-22T17:31:36.234Z,132.83
2023-02-22T17:32:36.310Z,133.24
2023-02-22T17:33:36.216Z,132.12
2023-02-22T17:34:36.235Z,132.20
2023-02-22T17:35:37.094Z,132.34
2023-02-22T17:36:36.296Z,131.59
2023-02-22T17:37:36.250Z,131.09
2023-02-22T17:38:36.264Z,131.90
2023-02-22T17:39:36.268Z,130.16
2023-02-22T17:40:36.339Z,131.73
2023-02-22T17:41:36.985Z,132.06
2023-02-22T17:42:36.284Z,132.30
2023-02-22T17:43:36.284Z,132.56
2023-02-22T17:44:36.290Z,132.32
2023-02-22T17:45:36.402Z,132.85
2023-02-22T17:46:36.402Z,131.64
2023-02-22T17:47:36.324Z,132.29
2023-02-22T17:48:36.337Z,130.94
2023-02-22T17:49:36.342Z,130.54
2023-02-22T17:50:36.354Z,130.34
2023-02-22T17:52:36.374Z,130.87
2023-02-22T17:53:36.384Z,131.42
2023-02-22T17:54:36.404Z,132.23
2023-02-22T17:55:36.400Z,133.16
2023-02-22T17:56:36.435Z,131.99
2023-02-22T17:57:36.449Z,131.10
2023-02-22T17:58:36.497Z,132.08
2023-02-22T17:59:36.459Z,132.40
2023-02-22T18:00:36.469Z,131.38
2023-02-22T22:48:43.108Z,109.83
2023-02-22T22:49:43.130Z,109.30
2023-02-22T22:50:43.156Z,108.23
2023-02-22T22:51:43.191Z,109.78
2023-02-22T22:52:43.215Z,108.18
2023-02-22T22:53:43.237Z,106.89
2023-02-22T22:54:43.299Z,106.37
2023-02-22T22:55:43.295Z,106.96
2023-02-22T22:56:43.311Z,106.71
2023-02-22T22:57:43.339Z,107.21
2023-02-22T22:58:43.370Z,107.63
2023-02-22T22:59:43.403Z,108.55
2023-02-22T23:00:43.445Z,107.69
2023-02-22T23:01:43.461Z,107.94
2023-02-22T23:02:43.535Z,108.12
2023-02-22T23:03:43.599Z,108.11
2023-02-22T23:04:43.542Z,106.98
2023-02-22T23:05:43.563Z,106.85
2023-02-22T23:06:43.615Z,107.01
2023-02-22T23:07:43.621Z,106.73
2023-02-22T23:08:43.655Z,106.89
2023-02-22T23:09:43.680Z,107.56
2023-02-22T23:10:43.713Z,107.23
2023-02-22T23:11:43.729Z,105.62
2023-02-22T23:12:43.753Z,106.21
2023-02-22T23:13:43.778Z,109.30
2023-02-22T23:14:43.926Z,108.13
2023-02-22T23:15:43.924Z,105.87
2023-02-22T23:16:43.870Z,105.27
2023-02-22T23:17:43.899Z,105.88
2023-02-22T23:18:43.919Z,104.17
2023-02-22T23:19:43.953Z,105.04
2023-02-22T23:20:43.987Z,104.84
2023-02-22T23:21:44.628Z,104.67
2023-02-22T23:22:44.030Z,104.97
2023-02-22T23:23:44.053Z,104.60
2023-02-22T23:24:44.133Z,103.95
2023-02-22T23:25:44.105Z,105.56
2023-02-22T23:26:44.138Z,103.99
2023-02-22T23:27:44.219Z,104.13
2023-02-22T23:28:44.187Z,105.90
2023-02-22T23:29:44.210Z,105.41
2023-02-22T23:30:44.266Z,106.63
2023-02-22T23:31:44.375Z,105.68
2023-02-22T23:32:44.289Z,105.70
2023-02-22T23:33:44.408Z,105.66
2023-02-22T23:34:44.360Z,104.42
2023-02-22T23:35:44.465Z,106.42
2023-02-22T23:36:44.456Z,104.73
2023-02-22T23:37:44.436Z,107.65
2023-02-22T23:38:44.460Z,105.58
2023-02-22T23:39:44.489Z,104.73
2023-02-22T23:40:44.517Z,105.80
2023-02-22T23:41:44.553Z,104.63
2023-02-22T23:42:44.570Z,105.23
2023-02-22T23:43:44.589Z,105.90
2023-02-22T23:44:44.685Z,105.25
2023-02-22T23:45:44.645Z,106.93
2023-02-22T23:46:44.732Z,105.85
2023-02-22T23:47:44.691Z,105.82
2023-02-22T23:48:44.735Z,106.40
2023-02-22T23:49:44.759Z,105.52
2023-02-22T23:50:44.774Z,106.76
2023-02-22T23:51:44.800Z,104.75
2023-02-22T23:52:45.651Z,106.71
2023-02-22T23:53:44.849Z,109.22
2023-02-22T23:54:44.871Z,109.02
2023-02-22T23:55:44.897Z,107.71
2023-02-22T23:56:44.931Z,106.15
2023-02-22T23:57:44.960Z,106.94
2023-02-22T23:58:44.979Z,106.08
2023-02-22T23:59:45.001Z,107.14
